Stations météo

réclame
Mon MeteoGroup
Ilundain, Espagne (8089): Température de l'air & dewpoint: 18.05.2019 03:00:00 - 24.05.2019 03:00:00 (CEST)Ilundain, Espagne (8089): Vitesse du vent & gusts: 18.05.2019 03:00:00 - 24.05.2019 03:00:00 (CEST)Ilundain, Espagne (8089): Direction du vent: 18.05.2019 03:00:00 - 24.05.2019 03:00:00 (CEST)Ilundain, Espagne (8089): Quantités de précipitations: 18.05.2019 03:00:00 - 24.05.2019 03:00:00 (CEST)
Date & Time tt [°C] td [°C] ff [km/h] ff [knt] fx [km/h] fx [knt] dd rr [mm]
24.05.2019 03:00:00 - - - - - - - -
24.05.2019 02:00:00 11,5 11,0 3 1 13 7 S -
24.05.2019 01:00:00 12,0 10,5 3 2 13 7 NW 0,7
24.05.2019 00:00:00 11,9 10,2 3 1 13 7 NW 0,4
23.05.2019 23:00:00 12,7 9,6 4 2 17 9 NW 0,0
23.05.2019 22:00:00 13,0 9,3 3 2 21 11 NW 0,0
23.05.2019 21:00:00 15,3 10,0 5 3 20 11 NW 0,0
23.05.2019 20:00:00 16,0 12,5 12 7 19 10 NNW -
23.05.2019 19:00:00 17,7 15,2 3 2 13 7 W 0,0
23.05.2019 18:00:00 17,4 13,2 5 3 22 12 N 0,1
23.05.2019 17:00:00 20,8 11,7 11 6 20 11 NNW 0,0
23.05.2019 16:00:00 - - - - - - - -
23.05.2019 15:00:00 - - 5 3 - - W -
23.05.2019 14:00:00 21,0 12,4 5 3 10 5 W -
23.05.2019 13:00:00 19,7 13,2 3 2 8 5 WNW 0,0
23.05.2019 12:00:00 18,1 13,0 1 1 10 6 WNW 0,0
23.05.2019 11:00:00 16,3 11,9 1 1 6 3 WNW 0,0
23.05.2019 10:00:00 13,7 11,2 4 2 7 4 W 0,0
23.05.2019 09:00:00 12,1 10,6 0 0 9 5 NW 0,0
23.05.2019 08:00:00 10,1 9,9 2 1 13 7 W -
23.05.2019 07:00:00 8,5 8,4 3 2 7 4 ESE 0,0
23.05.2019 06:00:00 8,5 8,4 4 2 7 4 E 0,0
23.05.2019 05:00:00 9,4 8,7 0 0 10 6 WNW 0,0
23.05.2019 04:00:00 10,0 8,8 1 0 8 4 SE 0,0
23.05.2019 03:00:00 10,4 9,3 1 1 10 5 N 0,0
23.05.2019 02:00:00 10,6 9,6 5 3 8 4 E -
23.05.2019 01:00:00 10,4 9,0 5 3 9 5 E 0,0
23.05.2019 00:00:00 11,4 9,3 3 1 11 6 E 0,0
22.05.2019 23:00:00 13,3 9,9 1 0 5 3 E 0,0
22.05.2019 22:00:00 15,5 10,3 0 0 10 6 NE 0,0
22.05.2019 21:00:00 18,4 10,5 7 4 21 11 E 0,0
22.05.2019 20:00:00 20,1 10,2 9 5 21 11 ENE -
22.05.2019 19:00:00 21,7 8,9 7 4 16 8 ENE 0,0
22.05.2019 18:00:00 22,8 7,0 7 4 14 8 W 0,0
22.05.2019 17:00:00 22,5 9,9 6 3 17 9 NW 0,0
22.05.2019 16:00:00 21,3 9,8 8 5 17 9 W 0,0
22.05.2019 15:00:00 20,9 9,8 5 3 18 10 WNW 0,0
22.05.2019 14:00:00 20,2 10,0 6 3 15 8 WNW -
22.05.2019 13:00:00 18,9 10,4 3 2 13 7 W 0,0
22.05.2019 12:00:00 17,2 11,4 3 2 14 7 WNW 0,0
22.05.2019 11:00:00 14,8 10,6 3 2 10 5 WSW 0,0
22.05.2019 10:00:00 13,1 9,7 2 1 6 3 WNW 0,0
22.05.2019 09:00:00 11,8 9,9 1 1 6 3 ESE 0,0
22.05.2019 08:00:00 8,0 7,8 3 2 8 4 ESE -
22.05.2019 07:00:00 5,7 5,6 4 2 8 4 E 0,0
22.05.2019 06:00:00 6,1 5,9 5 3 8 5 E 0,0
22.05.2019 05:00:00 6,1 5,9 5 3 7 4 E 0,0
22.05.2019 04:00:00 6,2 6,1 4 2 6 4 E 0,0
22.05.2019 03:00:00 6,6 6,4 3 1 5 3 ESE 0,0
22.05.2019 02:00:00 7,7 7,1 5 3 8 4 E -
22.05.2019 01:00:00 9,5 8,4 3 2 10 5 S 0,0
22.05.2019 00:00:00 10,1 8,4 2 1 12 6 WSW 0,0
21.05.2019 23:00:00 11,9 7,8 2 1 24 13 SSE 0,0
21.05.2019 22:00:00 13,0 7,0 8 4 26 14 N 0,0
21.05.2019 21:00:00 14,6 6,4 11 6 29 15 NNE 0,0
21.05.2019 20:00:00 15,4 6,7 11 6 32 17 ENE -
21.05.2019 19:00:00 16,0 7,0 10 6 27 15 ENE 0,0
21.05.2019 18:00:00 17,4 8,0 8 4 29 15 NNE 0,0
21.05.2019 17:00:00 17,6 8,4 11 6 29 16 NE 0,0
21.05.2019 16:00:00 17,6 8,1 12 7 30 16 NE 0,0
21.05.2019 15:00:00 18,0 8,8 9 5 26 14 NNE 0,0
21.05.2019 14:00:00 18,0 8,8 18 10 30 16 NW -
21.05.2019 13:00:00 17,2 8,9 12 6 23 13 NW 0,0
21.05.2019 12:00:00 15,6 8,8 11 6 29 15 NW 0,0
21.05.2019 11:00:00 13,2 9,3 4 2 12 6 WSW 0,0
21.05.2019 10:00:00 11,5 9,0 2 1 9 5 SW 0,0
21.05.2019 09:00:00 8,9 8,7 3 2 6 3 SW 0,0
21.05.2019 08:00:00 5,8 5,6 3 1 8 4 E -
21.05.2019 07:00:00 4,0 3,8 3 2 7 4 E 0,0
21.05.2019 06:00:00 4,4 4,3 4 2 8 4 E 0,0
21.05.2019 05:00:00 4,4 4,3 5 3 7 4 E 0,0
21.05.2019 04:00:00 4,6 4,5 2 1 8 5 E 0,0
21.05.2019 03:00:00 5,1 5,0 4 2 10 5 E 0,0
21.05.2019 02:00:00 6,1 5,8 3 2 6 4 E -
21.05.2019 01:00:00 6,9 6,1 1 0 8 4 NNW 0,0
21.05.2019 00:00:00 7,6 6,4 2 1 8 4 E 0,0
20.05.2019 23:00:00 9,5 7,4 2 1 10 5 WSW 0,0
20.05.2019 22:00:00 10,6 7,0 5 3 16 9 NE 0,0
20.05.2019 21:00:00 12,5 6,5 8 4 23 13 NNE 0,0
20.05.2019 20:00:00 14,7 7,0 8 4 25 14 NNE -
20.05.2019 19:00:00 15,3 6,5 9 5 25 14 NE 0,0
20.05.2019 18:00:00 16,0 7,3 13 7 24 13 N 0,0
20.05.2019 17:00:00 16,4 7,6 9 5 22 12 N 0,0
20.05.2019 16:00:00 15,0 7,0 7 4 21 12 N 0,0
20.05.2019 15:00:00 14,5 7,6 9 5 19 10 NNW 0,0
20.05.2019 14:00:00 13,7 7,0 4 2 21 11 ENE -
20.05.2019 13:00:00 13,2 8,5 7 4 16 9 N 0,0
20.05.2019 12:00:00 11,0 7,7 6 3 16 9 N 0,0
20.05.2019 11:00:00 10,4 8,0 7 4 15 8 NW 0,0
20.05.2019 10:00:00 9,4 8,4 8 4 12 6 NW 0,0
20.05.2019 09:00:00 7,7 7,6 3 2 9 5 NW 0,0
20.05.2019 08:00:00 6,1 5,9 1 1 7 4 E -
20.05.2019 07:00:00 5,4 5,3 1 1 7 4 S 0,0
20.05.2019 06:00:00 5,8 5,6 4 2 8 5 E 0,0
20.05.2019 05:00:00 5,0 4,8 5 3 7 4 ENE 0,0
20.05.2019 04:00:00 6,0 5,8 3 2 6 3 SE 0,0
20.05.2019 03:00:00 6,0 5,8 1 1 10 6 ENE 0,0
20.05.2019 02:00:00 7,1 7,0 0 0 8 4 S -
20.05.2019 01:00:00 8,0 7,7 3 2 6 3 SE 0,0
20.05.2019 00:00:00 8,8 8,4 2 1 13 7 NW 0,0
19.05.2019 23:00:00 9,0 8,5 7 4 11 6 WNW 0,0
19.05.2019 22:00:00 9,2 8,1 3 2 16 9 WNW 0,0
19.05.2019 21:00:00 9,8 8,1 5 3 26 14 NNW 0,0
19.05.2019 20:00:00 10,0 8,0 10 5 24 13 NW -
19.05.2019 19:00:00 9,9 7,8 10 6 23 13 NNW 0,0
19.05.2019 18:00:00 10,7 8,0 8 4 27 15 NNW 0,0
19.05.2019 17:00:00 9,9 8,5 10 6 30 16 NW 0,0
19.05.2019 16:00:00 10,4 8,0 13 7 33 18 NNW 0,0
19.05.2019 15:00:00 11,3 9,2 13 7 29 16 NW 0,0
19.05.2019 14:00:00 10,2 9,4 13 7 27 14 NNW -
19.05.2019 13:00:00 9,4 8,4 11 6 26 14 NW 0,3
19.05.2019 12:00:00 9,9 8,9 8 4 18 10 WNW 0,0
19.05.2019 11:00:00 9,2 8,7 8 4 15 8 W 0,2
19.05.2019 10:00:00 7,9 7,7 6 3 10 6 WSW 0,7
19.05.2019 09:00:00 7,5 7,4 1 1 5 3 SSW 2,8
19.05.2019 08:00:00 7,3 7,1 3 2 5 3 W -
19.05.2019 07:00:00 7,4 7,3 2 1 6 3 WSW 0,9
19.05.2019 06:00:00 7,4 7,3 2 1 7 4 NE 3,1
19.05.2019 05:00:00 7,4 7,3 1 1 4 2 NE 2,2
19.05.2019 04:00:00 7,3 7,1 1 1 4 2 E 2,5
19.05.2019 03:00:00 7,2 7,0 1 1 5 3 E 0,9
19.05.2019 02:00:00 7,2 7,0 1 1 5 3 W -
19.05.2019 01:00:00 7,2 6,8 3 1 5 3 SW 1,5
19.05.2019 00:00:00 7,1 6,7 3 2 6 3 SW 0,7
18.05.2019 23:00:00 7,4 6,8 2 1 10 5 WSW 0,5
18.05.2019 22:00:00 7,3 6,2 3 1 17 9 NNW 0,6
18.05.2019 21:00:00 8,0 6,4 4 2 10 5 NNW 0,0
18.05.2019 20:00:00 8,0 5,8 7 4 23 12 N -
18.05.2019 19:00:00 8,8 5,5 11 6 27 15 NNW 0,0
18.05.2019 18:00:00 10,0 6,7 14 7 25 13 NNW 0,0
18.05.2019 17:00:00 9,4 6,7 10 5 21 12 NNW 0,1
18.05.2019 16:00:00 10,0 6,5 8 5 23 13 N 0,0
18.05.2019 15:00:00 10,8 6,5 9 5 24 13 N 0,0
18.05.2019 14:00:00 10,1 5,6 7 4 16 9 N -
18.05.2019 13:00:00 10,1 5,6 5 3 14 8 NW 0,0
18.05.2019 12:00:00 9,2 4,8 5 3 11 6 N 0,0
18.05.2019 11:00:00 9,0 5,0 4 2 8 5 WSW 0,0
18.05.2019 10:00:00 8,1 4,8 4 2 13 7 NNW 0,0
18.05.2019 09:00:00 8,8 5,1 3 2 7 4 W 0,0
18.05.2019 08:00:00 5,4 5,0 3 2 8 4 ESE -
18.05.2019 07:00:00 4,1 3,4 4 2 8 4 E 0,0
18.05.2019 06:00:00 6,3 4,6 0 0 10 6 SW 0,0
18.05.2019 05:00:00 6,7 5,0 5 3 12 7 N 0,0
18.05.2019 04:00:00 7,4 5,8 4 2 19 10 N 0,0
18.05.2019 03:00:00 7,8 6,1 6 4 13 7 NW 0,0

tt = Température de l'air
td = dewpoint
ff = Vitesse du vent
fx = gusts
dd = Direction du vent
rr = Quantités de précipitations

stations d'obs. à proximité